createdAt,value
2023-02-27T00:00:00.931Z,12.05
2023-02-27T00:02:27.559Z,13.38
2023-02-27T00:04:54.717Z,12.45
2023-02-27T00:07:26.004Z,11.88
2023-02-27T00:09:53.348Z,13.77
2023-02-27T00:12:20.113Z,12.77
2023-02-27T00:14:47.024Z,16.38
2023-02-27T00:17:13.715Z,15.30
2023-02-27T00:19:40.583Z,11.65
2023-02-27T00:22:07.197Z,17.63
2023-02-27T00:24:34.081Z,18.00
2023-02-27T00:27:00.935Z,17.33
2023-02-27T00:29:27.675Z,19.75
2023-02-27T00:31:54.450Z,17.83
2023-02-27T00:34:21.138Z,17.05
2023-02-27T00:36:47.734Z,18.50
2023-02-27T00:39:15.709Z,21.45
2023-02-27T00:41:42.426Z,17.48
2023-02-27T00:44:09.047Z,18.88
2023-02-27T00:46:35.830Z,22.45
2023-02-27T00:49:02.810Z,18.35
2023-02-27T00:51:29.533Z,17.02
2023-02-27T00:53:56.568Z,13.18
2023-02-27T00:56:23.231Z,14.02
2023-02-27T00:58:49.890Z,20.15
2023-02-27T01:01:16.585Z,14.88
2023-02-27T01:03:43.598Z,13.65
2023-02-27T01:06:10.372Z,11.05
2023-02-27T01:08:37.049Z,10.50
2023-02-27T01:11:03.728Z,12.20
2023-02-27T01:13:30.502Z,15.60
2023-02-27T01:15:57.318Z,12.00
2023-02-27T01:18:24.034Z,12.75
2023-02-27T01:20:55.017Z,13.48
2023-02-27T01:23:22.839Z,13.23
2023-02-27T01:25:49.955Z,10.48
2023-02-27T01:28:17.121Z,11.32
2023-02-27T01:30:44.003Z,11.02
2023-02-27T01:33:10.678Z,13.63
2023-02-27T01:35:37.813Z,12.02
2023-02-27T01:38:04.484Z,11.35
2023-02-27T01:40:36.834Z,10.73
2023-02-27T01:43:05.026Z,9.32
2023-02-27T01:45:35.119Z,12.43
2023-02-27T01:48:20.715Z,10.27
2023-02-27T01:50:57.664Z,10.45
2023-02-27T01:53:28.843Z,17.77
2023-02-27T01:55:59.233Z,10.40
2023-02-27T01:58:27.102Z,10.73
2023-02-27T02:00:54.725Z,10.15
2023-02-27T02:03:40.115Z,9.95
2023-02-27T02:06:07.397Z,8.30
2023-02-27T02:08:39.037Z,11.73
2023-02-27T02:11:07.663Z,8.75
2023-02-27T02:13:34.885Z,8.60
2023-02-27T02:16:15.501Z,11.05
2023-02-27T02:19:21.256Z,8.18
2023-02-27T02:21:51.240Z,8.63
2023-02-27T02:24:39.219Z,8.23
2023-02-27T02:27:34.661Z,9.15
2023-02-27T02:30:07.433Z,8.52
2023-02-27T02:33:10.477Z,9.07
2023-02-27T02:36:11.171Z,8.82
2023-02-27T02:39:02.517Z,8.27
2023-02-27T02:41:52.508Z,7.88
2023-02-27T02:44:28.952Z,8.13
2023-02-27T02:47:25.825Z,8.88
2023-02-27T02:50:02.928Z,10.32
2023-02-27T02:52:45.974Z,9.10
2023-02-27T02:55:25.623Z,9.13
2023-02-27T02:58:01.941Z,8.40
2023-02-27T03:00:33.716Z,8.18
2023-02-27T03:03:29.202Z,8.73
2023-02-27T03:06:00.732Z,9.68
2023-02-27T03:08:32.725Z,8.95
2023-02-27T03:11:04.270Z,8.82
2023-02-27T03:13:40.272Z,8.25
2023-02-27T03:16:41.300Z,9.10
2023-02-27T03:19:45.805Z,9.00
2023-02-27T03:22:20.631Z,8.77
2023-02-27T03:24:58.164Z,9.07
2023-02-27T03:27:30.291Z,8.10
2023-02-27T03:30:47.397Z,8.10
2023-02-27T03:33:54.528Z,9.02
2023-02-27T03:36:44.747Z,7.40
2023-02-27T03:39:22.305Z,6.68
2023-02-27T03:41:54.884Z,7.68
2023-02-27T03:44:56.632Z,6.28
2023-02-27T03:47:23.525Z,5.05
2023-02-27T03:49:53.201Z,5.35
2023-02-27T03:52:22.109Z,5.35
2023-02-27T03:55:14.799Z,4.85
2023-02-27T03:57:41.916Z,5.28
2023-02-27T04:00:12.419Z,4.90
2023-02-27T04:02:41.209Z,5.57
2023-02-27T04:05:08.635Z,4.20
2023-02-27T04:07:54.011Z,4.90
2023-02-27T04:10:42.917Z,4.57
2023-02-27T04:13:39.978Z,4.30
2023-02-27T04:16:33.429Z,4.40
2023-02-27T04:19:09.444Z,4.05
2023-02-27T04:22:03.256Z,4.07
2023-02-27T04:25:02.781Z,4.43
2023-02-27T04:27:39.363Z,5.00
2023-02-27T04:30:38.547Z,4.68
2023-02-27T04:33:12.997Z,4.35
2023-02-27T04:35:56.764Z,5.07
2023-02-27T04:38:30.670Z,4.25
2023-02-27T04:41:08.607Z,4.75
2023-02-27T04:43:38.138Z,4.80
2023-02-27T04:46:08.848Z,4.50
2023-02-27T04:48:44.841Z,5.65
2023-02-27T04:51:16.659Z,5.00
2023-02-27T04:54:03.448Z,4.88
2023-02-27T04:56:47.783Z,5.93
2023-02-27T04:59:26.249Z,5.15
2023-02-27T05:02:25.101Z,5.50
2023-02-27T05:04:56.836Z,5.32
2023-02-27T05:07:30.289Z,5.75
2023-02-27T05:10:12.334Z,5.07
2023-02-27T05:12:41.102Z,5.30
2023-02-27T05:15:22.138Z,5.00
2023-02-27T05:18:03.039Z,5.70
2023-02-27T05:20:48.134Z,5.25
2023-02-27T05:23:21.022Z,4.75
2023-02-27T05:25:58.103Z,5.30
2023-02-27T05:28:46.551Z,5.30
2023-02-27T05:31:22.004Z,5.93
2023-02-27T05:34:22.603Z,6.10
2023-02-27T05:37:02.495Z,7.50
2023-02-27T05:39:32.241Z,10.13
2023-02-27T05:42:07.633Z,13.88
2023-02-27T05:44:43.718Z,14.30
2023-02-27T05:47:18.758Z,14.57
2023-02-27T05:49:55.048Z,14.68
2023-02-27T05:52:25.165Z,14.10
2023-02-27T05:55:04.363Z,14.60
2023-02-27T05:57:40.819Z,12.35
2023-02-27T06:00:11.025Z,8.27
2023-02-27T06:02:38.769Z,6.70
2023-02-27T06:05:06.164Z,8.38
2023-02-27T06:07:34.083Z,10.15
2023-02-27T06:10:01.296Z,10.68
2023-02-27T06:12:28.106Z,8.85
2023-02-27T06:14:55.080Z,8.95
2023-02-27T06:17:21.824Z,7.85
2023-02-27T06:19:48.540Z,6.05
2023-02-27T06:22:15.229Z,5.53
2023-02-27T06:24:41.985Z,6.07
2023-02-27T06:27:08.606Z,6.47
2023-02-27T06:29:35.604Z,6.05
2023-02-27T06:32:02.296Z,5.70
2023-02-27T06:34:29.197Z,7.00
2023-02-27T06:36:55.909Z,4.63
2023-02-27T06:39:22.893Z,4.28
2023-02-27T06:41:49.642Z,3.65
2023-02-27T06:44:18.524Z,3.65
2023-02-27T06:46:46.332Z,3.90
2023-02-27T06:49:13.635Z,4.00
2023-02-27T06:51:40.262Z,5.72
2023-02-27T06:54:08.141Z,5.35
2023-02-27T06:56:34.953Z,4.95
2023-02-27T06:59:01.892Z,4.88
2023-02-27T07:01:28.790Z,4.80
2023-02-27T07:03:55.568Z,4.18
2023-02-27T07:06:22.443Z,5.28
2023-02-27T07:09:09.187Z,4.35
2023-02-27T07:11:35.978Z,4.65
2023-02-27T07:14:02.885Z,5.55
2023-02-27T07:16:29.711Z,5.18
2023-02-27T07:18:56.523Z,3.83
2023-02-27T07:21:23.142Z,4.75
2023-02-27T07:23:49.934Z,5.90
2023-02-27T07:26:16.770Z,5.63
2023-02-27T07:28:43.409Z,5.45
2023-02-27T07:31:10.206Z,6.63
2023-02-27T07:33:37.018Z,6.05
2023-02-27T07:36:03.926Z,5.20
2023-02-27T07:38:32.444Z,5.97
2023-02-27T07:40:59.207Z,11.32
2023-02-27T07:43:26.377Z,7.32
2023-02-27T07:45:53.256Z,6.90
2023-02-27T07:48:20.677Z,10.00
2023-02-27T07:50:47.261Z,5.47
2023-02-27T07:53:14.012Z,4.80
2023-02-27T07:55:40.700Z,5.65
2023-02-27T07:58:07.510Z,5.72
2023-02-27T08:00:34.438Z,5.15
2023-02-27T08:03:01.242Z,5.68
2023-02-27T08:05:27.931Z,4.32
2023-02-27T08:07:54.770Z,5.05
2023-02-27T08:10:21.585Z,5.50
2023-02-27T08:12:48.183Z,6.00
2023-02-27T08:15:15.074Z,5.18
2023-02-27T08:17:41.721Z,5.75
2023-02-27T08:20:11.410Z,6.38
2023-02-27T08:22:38.370Z,5.80
2023-02-27T08:25:07.913Z,5.90
2023-02-27T08:27:34.906Z,5.57
2023-02-27T08:30:01.801Z,5.13
2023-02-27T08:32:28.886Z,5.93
2023-02-27T08:34:58.607Z,6.22
2023-02-27T08:37:25.386Z,5.25
2023-02-27T08:39:52.052Z,8.40
2023-02-27T08:42:18.749Z,5.90
2023-02-27T08:44:45.424Z,5.97
2023-02-27T08:47:12.159Z,6.18
2023-02-27T08:49:39.006Z,5.68
2023-02-27T08:52:05.874Z,6.15
2023-02-27T08:54:32.536Z,10.60
2023-02-27T08:56:59.117Z,6.43
2023-02-27T08:59:25.834Z,6.28
2023-02-27T09:01:52.650Z,5.30
2023-02-27T09:04:21.000Z,5.88
2023-02-27T09:06:48.392Z,5.88
2023-02-27T09:09:15.096Z,5.15
2023-02-27T09:11:41.978Z,5.40
2023-02-27T09:14:08.890Z,7.53
2023-02-27T09:16:35.698Z,6.95
2023-02-27T09:19:02.342Z,7.07
2023-02-27T09:21:30.024Z,8.15
2023-02-27T09:24:02.614Z,8.07
2023-02-27T09:26:44.954Z,9.35
2023-02-27T09:29:12.708Z,8.45
2023-02-27T09:31:39.526Z,6.45
2023-02-27T09:34:06.380Z,6.20
2023-02-27T09:36:33.621Z,5.55
2023-02-27T09:39:00.894Z,5.65
2023-02-27T09:41:56.036Z,5.47
2023-02-27T09:44:45.619Z,4.80
2023-02-27T09:47:38.112Z,4.97
2023-02-27T09:50:26.386Z,4.70
2023-02-27T09:52:53.117Z,4.57
2023-02-27T09:55:22.119Z,4.75
2023-02-27T09:58:06.787Z,4.88
2023-02-27T10:00:53.775Z,4.43
2023-02-27T10:03:48.489Z,4.20
2023-02-27T10:09:08.798Z,5.35
2023-02-27T10:11:59.209Z,5.10
2023-02-27T10:14:38.702Z,5.65
2023-02-27T10:17:14.140Z,5.28
2023-02-27T10:19:45.758Z,5.88
2023-02-27T10:22:17.751Z,6.22
2023-02-27T10:25:18.188Z,6.28
2023-02-27T10:27:50.564Z,5.40
2023-02-27T10:30:29.550Z,4.65
2023-02-27T10:33:10.973Z,6.72
2023-02-27T10:35:40.284Z,6.72
2023-02-27T10:38:20.682Z,7.03
2023-02-27T10:40:49.114Z,7.75
2023-02-27T10:43:20.719Z,7.97
2023-02-27T10:45:47.442Z,7.53
2023-02-27T10:48:14.992Z,12.50
2023-02-27T10:50:44.479Z,6.40
2023-02-27T10:53:40.847Z,6.32
2023-02-27T10:56:13.620Z,6.55
2023-02-27T10:58:40.433Z,6.60
2023-02-27T11:01:10.370Z,5.30
2023-02-27T11:03:41.560Z,5.05
2023-02-27T11:06:26.929Z,5.38
2023-02-27T11:09:23.108Z,4.72
2023-02-27T11:11:50.965Z,5.68
2023-02-27T11:14:33.160Z,6.13
2023-02-27T11:17:02.124Z,5.68
2023-02-27T11:19:31.891Z,6.03
2023-02-27T11:22:03.115Z,5.60
2023-02-27T11:24:30.859Z,4.95
2023-02-27T11:27:17.821Z,4.90
2023-02-27T11:29:58.262Z,4.88
2023-02-27T11:32:31.146Z,4.90
2023-02-27T11:34:57.861Z,5.15
2023-02-27T11:37:32.692Z,5.22
2023-02-27T11:40:12.932Z,5.28
2023-02-27T11:42:53.132Z,5.03
2023-02-27T11:46:04.602Z,5.85
2023-02-27T11:48:21.913Z,5.65
2023-02-27T11:50:54.661Z,5.13
2023-02-27T11:53:43.208Z,4.93
2023-02-27T11:56:16.639Z,5.80
2023-02-27T11:58:59.413Z,4.65
2023-02-27T12:01:33.271Z,4.70
2023-02-27T12:04:24.091Z,4.38
2023-02-27T12:06:53.787Z,4.28
2023-02-27T12:09:39.842Z,4.25
2023-02-27T12:12:21.385Z,3.90
2023-02-27T12:15:13.611Z,4.18
2023-02-27T12:17:57.204Z,3.63
2023-02-27T12:20:36.650Z,5.00
2023-02-27T12:23:17.031Z,4.03
2023-02-27T12:25:57.092Z,4.80
2023-02-27T12:28:31.319Z,4.25
2023-02-27T12:34:09.512Z,5.13
2023-02-27T12:36:36.622Z,4.28
2023-02-27T12:39:05.701Z,4.90
2023-02-27T12:42:11.766Z,4.93
2023-02-27T12:45:09.211Z,6.38
2023-02-27T12:47:51.454Z,5.47
2023-02-27T12:50:20.078Z,6.28
2023-02-27T12:53:11.279Z,4.80
2023-02-27T12:55:45.245Z,4.63
2023-02-27T12:58:36.133Z,5.18
2023-02-27T13:01:13.913Z,5.65
2023-02-27T13:04:10.283Z,4.72
2023-02-27T13:06:53.240Z,5.20
2023-02-27T13:09:47.312Z,5.18
2023-02-27T13:12:37.186Z,4.22
2023-02-27T13:15:06.158Z,4.60
2023-02-27T13:17:43.658Z,5.43
2023-02-27T13:20:22.492Z,5.28
2023-02-27T13:22:56.036Z,4.90
2023-02-27T13:25:24.816Z,5.50
2023-02-27T13:27:57.678Z,6.20
2023-02-27T13:30:29.883Z,6.75
2023-02-27T13:33:15.386Z,6.65
2023-02-27T13:36:06.996Z,5.85
2023-02-27T13:38:45.970Z,6.68
2023-02-27T13:41:22.071Z,7.30
2023-02-27T13:43:53.396Z,13.10
2023-02-27T13:46:30.460Z,16.20
2023-02-27T13:49:09.209Z,6.50
2023-02-27T13:51:41.352Z,13.30
2023-02-27T13:54:07.982Z,8.93
2023-02-27T13:56:35.468Z,6.85
2023-02-27T13:59:14.196Z,6.30
2023-02-27T14:01:53.361Z,7.47
2023-02-27T14:04:21.435Z,5.70
2023-02-27T14:06:48.993Z,7.03
2023-02-27T14:09:20.842Z,6.47
2023-02-27T14:11:54.490Z,7.13
2023-02-27T14:14:50.357Z,7.68
2023-02-27T14:17:45.527Z,9.73
2023-02-27T14:20:16.921Z,7.72
2023-02-27T14:23:18.024Z,6.28
2023-02-27T14:25:54.974Z,7.22
2023-02-27T14:28:36.466Z,9.50
2023-02-27T14:31:26.092Z,12.50
2023-02-27T14:33:56.055Z,9.65
2023-02-27T14:36:27.879Z,9.18
2023-02-27T14:38:57.964Z,7.88
2023-02-27T14:41:24.561Z,8.18
2023-02-27T14:43:57.454Z,9.10
2023-02-27T14:46:36.833Z,7.55
2023-02-27T14:49:20.409Z,7.40
2023-02-27T14:51:47.872Z,9.27
2023-02-27T14:54:15.928Z,11.32
2023-02-27T14:57:00.803Z,10.45
2023-02-27T14:59:34.191Z,9.48
2023-02-27T15:02:04.653Z,10.60
2023-02-27T15:04:33.288Z,9.45
2023-02-27T15:07:00.998Z,8.40
2023-02-27T15:09:35.674Z,6.68
2023-02-27T15:12:04.688Z,6.50
2023-02-27T15:14:36.661Z,6.30
2023-02-27T15:17:05.153Z,6.22
2023-02-27T15:19:32.051Z,7.03
2023-02-27T15:22:04.022Z,7.03
2023-02-27T15:24:49.723Z,6.55
2023-02-27T15:27:28.220Z,6.47
2023-02-27T15:29:57.785Z,6.18
2023-02-27T15:32:41.261Z,5.47
2023-02-27T15:35:37.893Z,5.70
2023-02-27T15:38:05.332Z,10.05
2023-02-27T15:40:33.564Z,6.40
2023-02-27T15:43:01.540Z,7.10
2023-02-27T15:45:32.162Z,6.60
2023-02-27T15:47:59.708Z,7.72
2023-02-27T15:50:26.518Z,8.65
2023-02-27T15:53:11.209Z,7.90
2023-02-27T15:55:44.724Z,8.65
2023-02-27T15:58:31.360Z,9.20
2023-02-27T16:01:19.972Z,8.95
2023-02-27T16:03:50.304Z,8.73
2023-02-27T16:06:21.699Z,12.20
2023-02-27T16:08:53.145Z,10.02
2023-02-27T16:11:26.194Z,10.93
2023-02-27T16:13:54.528Z,8.70
2023-02-27T16:16:37.561Z,10.85
2023-02-27T16:19:27.212Z,13.00
2023-02-27T16:22:15.014Z,11.65
2023-02-27T16:24:42.880Z,11.05
2023-02-27T16:27:30.056Z,7.82
2023-02-27T16:30:02.826Z,8.35
2023-02-27T16:32:56.716Z,7.88
2023-02-27T16:35:24.065Z,8.40
2023-02-27T16:37:51.483Z,8.57
2023-02-27T16:40:19.623Z,8.80
2023-02-27T16:42:47.010Z,9.07
2023-02-27T16:45:16.918Z,8.93
2023-02-27T16:47:43.957Z,8.93
2023-02-27T16:50:24.978Z,9.15
2023-02-27T16:52:51.683Z,10.32
2023-02-27T16:55:18.817Z,10.93
2023-02-27T16:57:45.639Z,10.52
2023-02-27T17:00:14.548Z,9.10
2023-02-27T17:02:41.309Z,9.50
2023-02-27T17:05:08.445Z,8.55
2023-02-27T17:07:35.851Z,9.98
2023-02-27T17:10:03.620Z,8.77
2023-02-27T17:12:30.275Z,9.35
2023-02-27T17:14:57.392Z,9.35
2023-02-27T17:17:24.292Z,9.27
2023-02-27T17:19:50.991Z,9.27
2023-02-27T17:22:17.815Z,8.60
2023-02-27T17:24:44.520Z,9.57
2023-02-27T17:27:11.285Z,8.85
2023-02-27T17:29:39.021Z,8.88
2023-02-27T17:32:06.650Z,8.43
2023-02-27T17:34:33.494Z,8.27
2023-02-27T17:37:00.134Z,8.07
2023-02-27T17:39:27.017Z,8.52
2023-02-27T17:41:54.613Z,9.38
2023-02-27T17:44:21.645Z,36.50
2023-02-27T17:46:48.507Z,8.90
2023-02-27T17:49:15.857Z,8.38
2023-02-27T17:51:42.707Z,7.82
2023-02-27T17:54:09.656Z,8.77
2023-02-27T17:56:37.133Z,8.40
2023-02-27T17:59:05.105Z,7.22
2023-02-27T18:01:33.242Z,7.38
2023-02-27T18:04:00.182Z,7.90
2023-02-27T18:06:27.262Z,7.70
2023-02-27T18:08:54.808Z,8.25
2023-02-27T18:11:22.057Z,6.47
2023-02-27T18:13:49.380Z,6.93
2023-02-27T18:16:16.170Z,7.07
2023-02-27T18:18:43.864Z,7.03
2023-02-27T18:21:16.712Z,7.43
2023-02-27T18:23:44.471Z,6.82
2023-02-27T18:26:29.424Z,7.95
2023-02-27T18:29:02.586Z,8.43
2023-02-27T18:31:38.861Z,7.75
2023-02-27T18:34:06.262Z,8.43
2023-02-27T18:36:33.616Z,7.78
2023-02-27T18:39:00.855Z,7.80
2023-02-27T18:41:29.393Z,7.50
2023-02-27T18:43:56.401Z,8.15
2023-02-27T18:46:23.099Z,8.18
2023-02-27T18:48:50.652Z,8.05
2023-02-27T18:51:18.569Z,8.57
2023-02-27T18:53:48.235Z,7.68
2023-02-27T18:56:18.182Z,7.88
2023-02-27T18:58:45.348Z,7.28
2023-02-27T19:01:25.720Z,8.18
2023-02-27T19:03:54.017Z,7.88
2023-02-27T19:06:20.745Z,8.25
2023-02-27T19:08:47.961Z,7.90
2023-02-27T19:11:40.905Z,7.95
2023-02-27T19:14:12.036Z,10.10
2023-02-27T19:16:39.019Z,9.15
2023-02-27T19:19:07.702Z,9.00
2023-02-27T19:21:37.218Z,9.60
2023-02-27T19:24:04.266Z,9.65
2023-02-27T19:26:34.231Z,8.95
2023-02-27T19:29:01.512Z,8.48
2023-02-27T19:31:28.883Z,9.95
2023-02-27T19:33:55.940Z,10.55
2023-02-27T19:36:25.228Z,10.30
2023-02-27T19:38:52.672Z,11.40
2023-02-27T19:41:20.453Z,9.35
2023-02-27T19:43:48.379Z,9.20
2023-02-27T19:46:21.700Z,10.00
2023-02-27T19:48:48.818Z,9.60
2023-02-27T19:51:16.609Z,12.43
2023-02-27T19:53:51.397Z,13.50
2023-02-27T19:56:20.837Z,11.23
2023-02-27T19:58:48.893Z,10.57
2023-02-27T20:01:28.835Z,11.90
2023-02-27T20:03:56.382Z,9.95
2023-02-27T20:06:26.019Z,10.73
2023-02-27T20:08:53.753Z,10.00
2023-02-27T20:11:21.702Z,10.07
2023-02-27T20:13:50.133Z,9.65
2023-02-27T20:16:22.548Z,9.70
2023-02-27T20:18:50.231Z,9.68
2023-02-27T20:21:28.797Z,11.27
2023-02-27T20:23:56.853Z,11.02
2023-02-27T20:26:31.660Z,10.15
2023-02-27T20:29:01.407Z,10.68
2023-02-27T20:31:30.468Z,8.80
2023-02-27T20:33:58.168Z,12.30
2023-02-27T20:36:24.862Z,10.27
2023-02-27T20:38:51.738Z,10.15
2023-02-27T20:41:21.981Z,11.30
2023-02-27T20:43:49.511Z,11.23
2023-02-27T20:46:22.604Z,11.00
2023-02-27T20:48:49.602Z,10.77
2023-02-27T20:51:19.893Z,10.75
2023-02-27T20:53:49.244Z,10.43
2023-02-27T20:56:19.246Z,11.23
2023-02-27T20:58:45.961Z,12.98
2023-02-27T21:01:14.601Z,12.93
2023-02-27T21:03:43.037Z,18.88
2023-02-27T21:06:12.651Z,30.23
2023-02-27T21:08:42.187Z,11.60
2023-02-27T21:11:10.865Z,27.20
2023-02-27T21:13:38.071Z,11.90
2023-02-27T21:16:06.542Z,10.05
2023-02-27T21:18:34.016Z,10.57
2023-02-27T21:21:10.284Z,10.13
2023-02-27T21:23:41.503Z,9.55
2023-02-27T21:26:22.756Z,9.52
2023-02-27T21:28:58.291Z,9.18
2023-02-27T21:31:27.238Z,8.38
2023-02-27T21:33:55.695Z,8.25
2023-02-27T21:36:31.397Z,8.73
2023-02-27T21:39:00.319Z,9.57
2023-02-27T21:41:28.575Z,10.77
2023-02-27T21:43:59.977Z,10.07
2023-02-27T21:46:27.408Z,9.18
2023-02-27T21:48:54.520Z,7.93
2023-02-27T21:51:36.737Z,9.68
2023-02-27T21:54:05.779Z,8.38
2023-02-27T21:56:33.539Z,8.63
2023-02-27T21:59:01.854Z,8.55
2023-02-27T22:01:29.505Z,8.82
2023-02-27T22:03:57.115Z,9.95
2023-02-27T22:06:26.884Z,9.25
2023-02-27T22:08:58.610Z,10.23
2023-02-27T22:11:28.399Z,9.35
2023-02-27T22:13:55.212Z,9.93
2023-02-27T22:16:22.198Z,10.52
2023-02-27T22:18:49.016Z,8.02
2023-02-27T22:21:22.657Z,10.07
2023-02-27T22:23:50.171Z,9.18
2023-02-27T22:26:20.418Z,9.10
2023-02-27T22:28:47.329Z,10.77
2023-02-27T22:31:22.472Z,10.52
2023-02-27T22:33:52.279Z,9.63
2023-02-27T22:36:24.206Z,9.55
2023-02-27T22:38:51.821Z,9.23
2023-02-27T22:41:30.923Z,9.32
2023-02-27T22:43:59.355Z,9.55
2023-02-27T22:46:32.723Z,11.60
2023-02-27T22:49:04.936Z,9.10
2023-02-27T22:51:31.860Z,9.07
2023-02-27T22:54:01.867Z,9.77
2023-02-27T22:56:29.337Z,10.95
2023-02-27T22:58:56.233Z,10.70
2023-02-27T23:01:32.942Z,10.95
2023-02-27T23:04:03.133Z,10.63
2023-02-27T23:06:32.655Z,10.18
2023-02-27T23:09:00.438Z,9.98
2023-02-27T23:11:27.879Z,8.65
2023-02-27T23:13:55.127Z,10.32
2023-02-27T23:16:22.319Z,9.73
2023-02-27T23:18:51.873Z,10.05
2023-02-27T23:21:20.239Z,10.70
2023-02-27T23:23:47.947Z,11.13
2023-02-27T23:26:15.195Z,11.88
2023-02-27T23:28:42.241Z,10.48
2023-02-27T23:31:08.909Z,12.02
2023-02-27T23:33:35.901Z,11.63
2023-02-27T23:36:03.100Z,12.48
2023-02-27T23:38:30.590Z,12.82
2023-02-27T23:40:57.213Z,12.98
2023-02-27T23:43:43.225Z,11.65
2023-02-27T23:46:13.043Z,12.77
2023-02-27T23:48:40.238Z,13.48
2023-02-27T23:51:09.398Z,12.38
2023-02-27T23:53:37.529Z,13.00
2023-02-27T23:56:19.550Z,13.30
2023-02-27T23:58:47.288Z,12.73
